• Join FlightAware (Why Join?)
  • Login
  • US Flag 
09:13PM EST


 

Airport Tracker/Info


-or-


 

Live Flight TrackerFlight Track Log ✈ WIG1064 ✈ 14-Jun-2013 ✈ KMHT - KBTV

Flight Track Log - Related Links

Times and Time Zones

All times are in EDT time to prevent confusion due to time zone crossing. See the WIG1064 flight status page for this flight to view local times or setup timezone preferences in your user account.

Time Position Orientation Groundspeed Altitude Reporting Facility
EDT Latitude Longitude Course Direction KTS MPH feet Rate Location/Type
08:00AM 42.9906 -71.4919 322° Northwest 157 181 3,400  Level Boston Center
08:01AM 43.0181 -71.5597 299° West 163 188 5,100 1,500 Climbing Boston Center
08:02AM 43.0414 -71.6219 297° West 168 193 6,500 1,200 Climbing Boston Center
08:03AM 43.0708 -71.6614 316° Northwest 168 193 7,500 720 Climbing Boston Center
08:04AM 43.1528 -71.6723 304° West  Level FlightAware Approximate
08:04AM 43.1108 -71.7178 314° West 176 203 8,000  Level Boston Center
08:05AM 43.1866 -71.7214 322° Northwest  Level FlightAware Approximate
08:05AM 43.1467 -71.7656 316° Northwest 195 224 8,000  Level Boston Center
08:06AM 43.1947 -71.8164 322° Northwest 202 232 8,000  Level Boston Center
08:07AM 43.2367 -71.8558 326° Northwest 202 232 8,000  Level Boston Center
08:08AM 43.2869 -71.9097 322° Northwest 207 238 8,000  Level Boston Center
08:09AM 43.3247 -71.9578 317° Northwest 207 238 8,000  Level Boston Center
08:10AM 43.3728 -72.0089 322° Northwest 212 244 8,100  Climbing Boston Center
08:11AM 43.4167 -72.0542 323° Northwest 212 244 8,000  Descending Boston Center
08:12AM 43.4628 -72.1025 323° Northwest 212 244 8,100  Climbing Boston Center
08:13AM 43.5047 -72.1597 315° West 207 238 8,000 -60 Descending Boston Center
08:14AM 43.5483 -72.2139 318° Northwest 207 238 8,000  Level Boston Center
08:15AM 43.5944 -72.2594 324° Northwest 207 238 8,100  Climbing Boston Center
08:16AM 43.6403 -72.3025 326° Northwest 207 238 8,000 -60 Descending Boston Center
08:17AM 43.6842 -72.3539 320° Northwest 202 232 8,000 -60 Level Boston Center
08:18AM 43.7278 -72.4056 319° Northwest 202 232 7,900  Descending Boston Center
08:19AM 43.7717 -72.4517 323° Northwest 202 232 8,000  Climbing Boston Center
08:20AM 43.8194 -72.5006 324° Northwest 207 238 8,000 -60 Level Boston Center
08:21AM 43.8592 -72.5553 315° West 202 232 7,900 -60 Descending Boston Center
08:22AM 43.9028 -72.6072 319° Northwest 202 232 7,900  Level Boston Center
08:23AM 43.9381 -72.6619 312° West 202 232 7,900  Level Boston Center
08:24AM 43.9817 -72.7142 319° Northwest 202 232 7,900  Level Boston Center
08:25AM 44.0256 -72.7636 321° Northwest 202 232 8,000  Climbing Boston Center
08:26AM 44.0711 -72.8100 324° Northwest 207 238 8,000 -240 Level Boston Center
08:27AM 44.1147 -72.8506 326° Northwest 201 231 7,600 -600 Descending Boston Center
08:28AM 44.1708 -72.9061 325° Northwest 212 244 6,900 -720 Descending Boston Center
08:29AM 44.2206 -72.9558 324° Northwest 219 252 6,200 -660 Descending Boston Center
08:30AM 44.2725 -72.9997 329° Northwest 219 252 5,600 -960 Descending Boston Center
08:31AM 44.3244 -73.0436 329° Northwest 219 252 4,300 -1,260 Descending Boston Center
08:32AM 44.3783 -73.0850 331° Northwest 219 252 3,100 -1,140 Descending Boston Center
08:33AM 44.4303 -73.1203 334° Northwest 208 239 2,100 -720 Descending Boston Center
08:34AM 44.4758 -73.1325 349° North 183 211 1,700 -600 Descending Boston Center
08:35AM 44.4944 -73.1561 318° Northwest 107 123 900 -720 Descending Boston Center
08:36AM 44.4694 -73.1528 175° South 60 69 300 -300 Descending Boston Center
08:37AM 44.4653 -73.1497 152° Southeast 49 56 400 60 Climbing Boston Center
08:39AM 44.4667 -73.1500 324° Northwest  Level FlightAware Approximate
08:46AM 44.4719 -73.1533 324° Northwest  Level Estimated